Megan T Miller — WCW9003 — position and weather

sailwx.info

Track history (hours):
 
Tides and Currents Weather Stations Pressure Air Temp Water Temp Dewpoint Dewpoint Depression Visibility Wind Speed Wind Dir Waves Ship Positions

Megan T Miller

Owner: MILLER MARINE SERVICES INC, PORT JEFFERSON, NY. More information available from US FCC via Universal Licensing System and Coast Guard Vessel Documentation Center.

Last reported at 2015-Jul-04 06:33 UTC. Time now 2015-Jul-07 19:50 UTC.
Position N 41°13' W 072°54'.

Length 18 m.

MMSI: 338104509.

Date/timePositionNaut miles runAvg speedWind from/ knotsBaromVisibWave heightAir tempDewpointWater temp
2015-Jul-04 06:33N 41°13' W 072°54'9 9.4
2015-Jul-04 05:33N 41°11' W 072°42'1010.3
2015-Jul-04 04:33N 41°11' W 072°28'1111.3
2015-Jul-04 03:33N 41°10' W 072°13'6 6.2
2015-Jul-04 02:33N 41°07' W 072°20'2 1.6
2015-Jul-04 01:33N 41°06' W 072°22'1 0.9
2015-Jul-04 00:33N 41°06' W 072°20'1 0.9
2015-Jul-03 23:33N 41°06' W 072°22'0 0.0
2015-Jul-03 22:33N 41°06' W 072°22'0 0.0
2015-Jul-03 21:33N 41°06' W 072°22'0 0.0
2015-Jul-03 20:33N 41°06' W 072°22'0 0.0
2015-Jul-03 19:33N 41°06' W 072°22'0 0.0
2015-Jul-03 18:33N 41°06' W 072°22'1 1.2
2015-Jul-03 17:33N 41°07' W 072°20'6 6.0
2015-Jul-03 16:33N 41°10' W 072°14'8 8.5
2015-Jul-03 15:33N 41°11' W 072°25'8 8.3
2015-Jul-03 14:33N 41°11' W 072°36'8 7.9
2015-Jul-03 13:33N 41°11' W 072°47'8 7.3
2015-Jul-03 12:27N 41°17' W 072°55'  
Track history (hours):
 
Tides and Currents Weather Stations Pressure Air Temp Water Temp Dewpoint Dewpoint Depression Visibility Wind Speed Wind Dir Waves Ship Positions

Megan T Miller

Owner: MILLER MARINE SERVICES INC, PORT JEFFERSON, NY. More information available from US FCC via Universal Licensing System and Coast Guard Vessel Documentation Center.

Last reported at 2015-Jul-04 06:33 UTC. Time now 2015-Jul-07 19:50 UTC.
Position N 41°13' W 072°54'.

Length 18 m.

MMSI: 338104509.

Date/timePositionNaut miles runAvg speedWind from/ knotsBaromVisibWave heightAir tempDewpointWater temp
2015-Jul-04 06:33N 41°13' W 072°54'9 9.4
2015-Jul-04 05:33N 41°11' W 072°42'1010.3
2015-Jul-04 04:33N 41°11' W 072°28'1111.3
2015-Jul-04 03:33N 41°10' W 072°13'6 6.2
2015-Jul-04 02:33N 41°07' W 072°20'2 1.6
2015-Jul-04 01:33N 41°06' W 072°22'1 0.9
2015-Jul-04 00:33N 41°06' W 072°20'1 0.9
2015-Jul-03 23:33N 41°06' W 072°22'0 0.0
2015-Jul-03 22:33N 41°06' W 072°22'0 0.0
2015-Jul-03 21:33N 41°06' W 072°22'0 0.0
2015-Jul-03 20:33N 41°06' W 072°22'0 0.0
2015-Jul-03 19:33N 41°06' W 072°22'0 0.0
2015-Jul-03 18:33N 41°06' W 072°22'1 1.2
2015-Jul-03 17:33N 41°07' W 072°20'6 6.0
2015-Jul-03 16:33N 41°10' W 072°14'8 8.5
2015-Jul-03 15:33N 41°11' W 072°25'8 8.3
2015-Jul-03 14:33N 41°11' W 072°36'8 7.9
2015-Jul-03 13:33N 41°11' W 072°47'8 7.3
2015-Jul-03 12:27N 41°17' W 072°55'  

Dump ship's entire track history